EZY81TN EGKK-LEMI
Flight info
| Callsign | EZY81TN |
|---|---|
| Flight time | N/A |
| Altitude | 35000 |
| Route | SFD Y47 BENBO UY47 DRAKE L151 SITET UN859 SOPIL DCT BALAN DCT LMG DCT PIMQO DCT AGN DCT ANETO DCT POSSY DCT XIMPE DCT RIMES N860 VLC DCT ALT |
| Aircraft | A320/M-SDE2E3FGHIJ1RWXYZ/LB1 |
Departure
| Time | 2026-05-04 12:36 |
|---|---|
| Airport | London Gatwick Airport (EGKK) |
Arrival
| Time | N/A |
|---|---|
| Airport | Region of Murcia International Airport (LEMI) |
| Time | Latitude | Longitude | Altitude | Speed | Heading |
|---|---|---|---|---|---|
| 2026-05-04 11:58 | 51.15816 | -0.17941 | 210 ft | 0 kts | 77° |
| 2026-05-04 12:20 | 51.15815 | -0.17951 | 209 ft | 2 kts | 77° |
| 2026-05-04 12:21 | 51.15811 | -0.17978 | 217 ft | 2 kts | 77° |
| 2026-05-04 12:21 | 51.15808 | -0.18005 | 217 ft | 2 kts | 77° |
| 2026-05-04 12:21 | 51.15805 | -0.18032 | 219 ft | 3 kts | 103° |
| 2026-05-04 12:21 | 51.15808 | -0.18050 | 218 ft | 3 kts | 126° |
| 2026-05-04 12:22 | 51.15821 | -0.18071 | 221 ft | 3 kts | 158° |
| 2026-05-04 12:22 | 51.15825 | -0.18074 | 221 ft | 0 kts | 168° |
| 2026-05-04 12:23 | 51.15823 | -0.18074 | 208 ft | 2 kts | 168° |
| 2026-05-04 12:24 | 51.15767 | -0.18054 | 208 ft | 13 kts | 167° |
| 2026-05-04 12:24 | 51.15685 | -0.18069 | 215 ft | 12 kts | 237° |
| 2026-05-04 12:24 | 51.15666 | -0.18199 | 213 ft | 15 kts | 258° |
| 2026-05-04 12:24 | 51.15635 | -0.18345 | 211 ft | 11 kts | 222° |
| 2026-05-04 12:25 | 51.15584 | -0.18346 | 212 ft | 4 kts | 167° |
| 2026-05-04 12:25 | 51.15544 | -0.18332 | 208 ft | 11 kts | 167° |
| 2026-05-04 12:25 | 51.15449 | -0.18298 | 216 ft | 14 kts | 167° |
| 2026-05-04 12:25 | 51.15363 | -0.18268 | 213 ft | 12 kts | 167° |
| 2026-05-04 12:26 | 51.15278 | -0.18239 | 209 ft | 13 kts | 168° |
| 2026-05-04 12:26 | 51.15197 | -0.18230 | 220 ft | 10 kts | 213° |
| 2026-05-04 12:26 | 51.15184 | -0.18333 | 212 ft | 9 kts | 265° |
| 2026-05-04 12:26 | 51.15172 | -0.18426 | 219 ft | 8 kts | 257° |
| 2026-05-04 12:27 | 51.15160 | -0.18507 | 217 ft | 7 kts | 257° |
| 2026-05-04 12:27 | 51.15151 | -0.18576 | 209 ft | 6 kts | 257° |
| 2026-05-04 12:27 | 51.15142 | -0.18635 | 217 ft | 5 kts | 257° |
| 2026-05-04 12:27 | 51.15136 | -0.18685 | 210 ft | 5 kts | 257° |
| 2026-05-04 12:28 | 51.15122 | -0.18786 | 212 ft | 17 kts | 258° |
| 2026-05-04 12:28 | 51.15093 | -0.18995 | 212 ft | 19 kts | 257° |
| 2026-05-04 12:28 | 51.15066 | -0.19191 | 209 ft | 17 kts | 259° |
| 2026-05-04 12:28 | 51.14989 | -0.19274 | 211 ft | 12 kts | 197° |
| 2026-05-04 12:29 | 51.14945 | -0.19396 | 211 ft | 21 kts | 257° |
| 2026-05-04 12:29 | 51.14911 | -0.19648 | 219 ft | 24 kts | 258° |
| 2026-05-04 12:29 | 51.14875 | -0.19912 | 213 ft | 25 kts | 257° |
| 2026-05-04 12:29 | 51.14834 | -0.20194 | 209 ft | 27 kts | 258° |
| 2026-05-04 12:30 | 51.14795 | -0.20490 | 213 ft | 27 kts | 257° |
| 2026-05-04 12:30 | 51.14755 | -0.20775 | 211 ft | 24 kts | 258° |
| 2026-05-04 12:30 | 51.14733 | -0.20938 | 212 ft | 13 kts | 257° |
| 2026-05-04 12:30 | 51.14716 | -0.21062 | 209 ft | 11 kts | 258° |
| 2026-05-04 12:31 | 51.14696 | -0.21205 | 218 ft | 13 kts | 256° |
| 2026-05-04 12:31 | 51.14694 | -0.21224 | 213 ft | 0 kts | 257° |
| 2026-05-04 12:32 | 51.14692 | -0.21235 | 213 ft | 6 kts | 257° |
| 2026-05-04 12:33 | 51.14654 | -0.21334 | 208 ft | 12 kts | 195° |
| 2026-05-04 12:33 | 51.14612 | -0.21325 | 208 ft | 0 kts | 168° |
| 2026-05-04 12:33 | 51.14608 | -0.21324 | 211 ft | 5 kts | 167° |
| 2026-05-04 12:34 | 51.14546 | -0.21280 | 213 ft | 11 kts | 136° |
| 2026-05-04 12:34 | 51.14522 | -0.21147 | 208 ft | 14 kts | 77° |
| 2026-05-04 12:34 | 51.14524 | -0.21131 | 213 ft | 0 kts | 77° |
| 2026-05-04 12:35 | 51.14548 | -0.20960 | 210 ft | 47 kts | 78° |
| 2026-05-04 12:35 | 51.14667 | -0.20099 | 212 ft | 110 kts | 77° |
| 2026-05-04 12:35 | 51.14868 | -0.18641 | 208 ft | 158 kts | 78° |
| 2026-05-04 12:35 | 51.15115 | -0.16867 | 706 ft | 164 kts | 78° |
| 2026-05-04 12:36 | 51.15363 | -0.15094 | 1486 ft | 165 kts | 77° |
| 2026-05-04 12:36 | 51.15617 | -0.13231 | 1888 ft | 182 kts | 77° |
| 2026-05-04 12:36 | 51.15899 | -0.11170 | 2124 ft | 204 kts | 77° |
| 2026-05-04 12:36 | 51.16186 | -0.08847 | 2453 ft | 223 kts | 86° |
| 2026-05-04 12:37 | 51.15773 | -0.06479 | 3116 ft | 230 kts | 127° |
| 2026-05-04 12:37 | 51.14448 | -0.04882 | 3503 ft | 254 kts | 157° |
| 2026-05-04 12:37 | 51.12717 | -0.04059 | 4163 ft | 264 kts | 168° |
| 2026-05-04 12:37 | 51.10902 | -0.03533 | 4997 ft | 267 kts | 171° |
| 2026-05-04 12:38 | 51.09060 | -0.03052 | 5840 ft | 269 kts | 169° |
| 2026-05-04 12:38 | 51.07222 | -0.02403 | 6686 ft | 272 kts | 167° |
| 2026-05-04 12:38 | 51.05381 | -0.01625 | 7489 ft | 275 kts | 165° |
| 2026-05-04 12:38 | 51.03535 | -0.00779 | 8307 ft | 278 kts | 164° |
| 2026-05-04 12:39 | 51.01674 | 0.00103 | 9116 ft | 280 kts | 164° |
| 2026-05-04 12:39 | 50.99796 | 0.00999 | 9910 ft | 283 kts | 164° |
| 2026-05-04 12:39 | 50.97897 | 0.01908 | 10634 ft | 286 kts | 164° |
| 2026-05-04 12:39 | 50.95982 | 0.02824 | 11342 ft | 289 kts | 164° |
| 2026-05-04 12:40 | 50.94042 | 0.03749 | 12039 ft | 293 kts | 164° |
| 2026-05-04 12:40 | 50.92082 | 0.04677 | 12741 ft | 296 kts | 164° |
| 2026-05-04 12:40 | 50.90102 | 0.05608 | 13440 ft | 299 kts | 164° |
| 2026-05-04 12:40 | 50.88099 | 0.06550 | 14097 ft | 301 kts | 164° |
| 2026-05-04 12:41 | 50.86080 | 0.07498 | 14723 ft | 304 kts | 164° |
| 2026-05-04 12:41 | 50.84046 | 0.08451 | 15360 ft | 306 kts | 164° |
| 2026-05-04 12:41 | 50.82001 | 0.09411 | 15999 ft | 308 kts | 164° |
| 2026-05-04 12:41 | 50.79945 | 0.10376 | 16623 ft | 310 kts | 164° |
| 2026-05-04 12:42 | 50.77866 | 0.11321 | 17251 ft | 312 kts | 168° |
| 2026-05-04 12:42 | 50.75707 | 0.11711 | 17865 ft | 314 kts | 180° |
| 2026-05-04 12:42 | 50.73485 | 0.11312 | 18056 ft | 331 kts | 193° |
| 2026-05-04 12:42 | 50.71190 | 0.10458 | 18203 ft | 347 kts | 193° |
| 2026-05-04 12:43 | 50.68794 | 0.09570 | 18410 ft | 360 kts | 193° |
| 2026-05-04 12:43 | 50.66337 | 0.08666 | 18826 ft | 365 kts | 193° |
| 2026-05-04 12:43 | 50.63854 | 0.07760 | 19331 ft | 367 kts | 193° |
| 2026-05-04 12:43 | 50.61358 | 0.06853 | 19868 ft | 369 kts | 193° |
| 2026-05-04 12:44 | 50.58849 | 0.05946 | 20382 ft | 371 kts | 193° |
| 2026-05-04 12:44 | 50.56329 | 0.05036 | 20892 ft | 372 kts | 193° |
| 2026-05-04 12:44 | 50.53800 | 0.04124 | 21383 ft | 374 kts | 193° |
| 2026-05-04 12:44 | 50.51255 | 0.03211 | 21859 ft | 376 kts | 193° |
| 2026-05-04 12:45 | 50.48697 | 0.02297 | 22351 ft | 378 kts | 193° |
| 2026-05-04 12:45 | 50.46127 | 0.01394 | 22823 ft | 379 kts | 191° |
| 2026-05-04 12:45 | 50.43533 | 0.00964 | 23274 ft | 382 kts | 182° |
| 2026-05-04 12:45 | 50.40834 | 0.00886 | 23716 ft | 384 kts | 182° |
| 2026-05-04 12:46 | 50.38194 | 0.00814 | 24102 ft | 385 kts | 182° |
| 2026-05-04 12:46 | 50.35512 | 0.00742 | 24481 ft | 387 kts | 182° |
| 2026-05-04 12:46 | 50.32815 | 0.00665 | 24855 ft | 388 kts | 182° |
| 2026-05-04 12:46 | 50.30110 | 0.00583 | 25223 ft | 389 kts | 182° |
| 2026-05-04 12:47 | 50.27397 | 0.00500 | 25584 ft | 391 kts | 182° |
| 2026-05-04 12:47 | 50.24670 | 0.00418 | 25939 ft | 393 kts | 182° |
| 2026-05-04 12:47 | 50.21935 | 0.00339 | 26289 ft | 394 kts | 182° |
| 2026-05-04 12:47 | 50.19187 | 0.00261 | 26634 ft | 396 kts | 182° |
| 2026-05-04 12:48 | 50.16428 | 0.00181 | 26982 ft | 397 kts | 182° |
| 2026-05-04 12:48 | 50.13658 | 0.00102 | 27317 ft | 399 kts | 182° |
| 2026-05-04 12:48 | 50.10879 | 0.00102 | 27654 ft | 401 kts | 177° |
| 2026-05-04 12:48 | 50.08110 | 0.00736 | 27974 ft | 404 kts | 168° |
| 2026-05-04 12:49 | 50.05377 | 0.01823 | 28297 ft | 406 kts | 167° |
| 2026-05-04 12:49 | 50.02634 | 0.02918 | 28621 ft | 408 kts | 167° |
| 2026-05-04 12:49 | 49.99876 | 0.04004 | 28941 ft | 410 kts | 167° |
| 2026-05-04 12:49 | 49.97105 | 0.05088 | 29247 ft | 411 kts | 168° |
| 2026-05-04 12:50 | 49.94328 | 0.06174 | 29549 ft | 413 kts | 167° |
| 2026-05-04 12:50 | 49.91537 | 0.07267 | 29833 ft | 414 kts | 167° |
| 2026-05-04 12:50 | 49.88737 | 0.08361 | 30113 ft | 416 kts | 168° |
| 2026-05-04 12:50 | 49.85924 | 0.09459 | 30350 ft | 417 kts | 168° |
| 2026-05-04 12:51 | 49.83102 | 0.10566 | 30583 ft | 419 kts | 167° |
| 2026-05-04 12:51 | 49.80274 | 0.11676 | 30853 ft | 419 kts | 167° |
| 2026-05-04 12:51 | 49.77449 | 0.12784 | 31183 ft | 418 kts | 167° |
| 2026-05-04 12:51 | 49.74629 | 0.13885 | 31517 ft | 417 kts | 167° |
| 2026-05-04 12:52 | 49.71816 | 0.14977 | 31831 ft | 417 kts | 167° |
| 2026-05-04 12:52 | 49.69002 | 0.16062 | 32141 ft | 416 kts | 167° |
| 2026-05-04 12:52 | 49.66197 | 0.17153 | 32436 ft | 416 kts | 167° |
| 2026-05-04 12:52 | 49.63396 | 0.18274 | 32742 ft | 416 kts | 167° |
| 2026-05-04 12:53 | 49.60601 | 0.19413 | 33057 ft | 415 kts | 166° |
| 2026-05-04 12:53 | 49.57812 | 0.20555 | 33360 ft | 414 kts | 166° |
| 2026-05-04 12:53 | 49.55028 | 0.21688 | 33669 ft | 414 kts | 166° |
| 2026-05-04 12:53 | 49.52242 | 0.22813 | 33970 ft | 414 kts | 166° |
| 2026-05-04 12:54 | 49.49438 | 0.23777 | 34208 ft | 413 kts | 171° |
| 2026-05-04 12:54 | 49.46608 | 0.24501 | 34423 ft | 413 kts | 172° |
| 2026-05-04 12:54 | 49.43763 | 0.25173 | 34624 ft | 414 kts | 172° |
| 2026-05-04 12:54 | 49.40916 | 0.25807 | 34819 ft | 414 kts | 173° |
| 2026-05-04 12:55 | 49.38058 | 0.26433 | 35011 ft | 415 kts | 173° |
| 2026-05-04 12:55 | 49.35199 | 0.27061 | 35195 ft | 416 kts | 173° |
| 2026-05-04 12:55 | 49.32375 | 0.27689 | 35371 ft | 416 kts | 173° |
| 2026-05-04 12:55 | 49.29507 | 0.28337 | 35550 ft | 417 kts | 173° |
| 2026-05-04 12:56 | 49.26637 | 0.28990 | 35719 ft | 417 kts | 173° |
| 2026-05-04 12:56 | 49.23758 | 0.29647 | 35880 ft | 418 kts | 173° |
| 2026-05-04 12:56 | 49.20882 | 0.30309 | 36048 ft | 419 kts | 173° |
| 2026-05-04 12:56 | 49.17999 | 0.30972 | 36207 ft | 419 kts | 173° |
| 2026-05-04 12:57 | 49.15110 | 0.31631 | 36364 ft | 420 kts | 173° |
| 2026-05-04 12:57 | 49.12218 | 0.32287 | 36524 ft | 420 kts | 173° |
| 2026-05-04 12:57 | 49.09325 | 0.32941 | 36678 ft | 421 kts | 173° |
| 2026-05-04 12:57 | 49.06429 | 0.33591 | 36832 ft | 421 kts | 173° |
| 2026-05-04 12:58 | 49.03531 | 0.34245 | 36952 ft | 422 kts | 173° |
| 2026-05-04 12:58 | 48.97726 | 0.35557 | 36971 ft | 421 kts | 173° |
| 2026-05-04 12:59 | 48.91927 | 0.36862 | 36968 ft | 421 kts | 173° |
| 2026-05-04 12:59 | 48.86130 | 0.38163 | 36968 ft | 421 kts | 173° |
| 2026-05-04 13:00 | 48.80339 | 0.39459 | 36967 ft | 421 kts | 173° |
| 2026-05-04 13:00 | 48.74550 | 0.40754 | 36966 ft | 420 kts | 173° |
| 2026-05-04 13:01 | 48.68764 | 0.42049 | 36968 ft | 420 kts | 173° |
| 2026-05-04 13:01 | 48.62976 | 0.43332 | 36973 ft | 420 kts | 173° |
| 2026-05-04 13:02 | 48.57189 | 0.44618 | 36976 ft | 420 kts | 173° |
| 2026-05-04 13:02 | 48.51412 | 0.45897 | 36972 ft | 419 kts | 173° |
| 2026-05-04 13:03 | 48.45638 | 0.47179 | 36974 ft | 419 kts | 173° |
| 2026-05-04 13:03 | 48.39869 | 0.48444 | 36974 ft | 419 kts | 173° |
| 2026-05-04 13:04 | 48.34103 | 0.49707 | 36969 ft | 419 kts | 173° |
| 2026-05-04 13:04 | 48.28344 | 0.50970 | 36970 ft | 418 kts | 173° |
| 2026-05-04 13:05 | 48.22591 | 0.52225 | 36975 ft | 418 kts | 173° |
| 2026-05-04 13:05 | 48.16839 | 0.53480 | 36970 ft | 418 kts | 173° |
| 2026-05-04 13:06 | 48.11125 | 0.54739 | 36970 ft | 418 kts | 173° |
| 2026-05-04 13:06 | 48.05377 | 0.55992 | 36972 ft | 417 kts | 174° |
| 2026-05-04 13:07 | 47.99627 | 0.57227 | 36967 ft | 418 kts | 173° |
| 2026-05-04 13:07 | 47.93875 | 0.58475 | 36960 ft | 418 kts | 173° |
| 2026-05-04 13:08 | 47.88123 | 0.59722 | 36955 ft | 418 kts | 173° |
| 2026-05-04 13:08 | 47.82371 | 0.60957 | 36952 ft | 418 kts | 174° |
| 2026-05-04 13:09 | 47.77586 | 0.61985 | 36947 ft | 418 kts | 174° |
| 2026-05-04 13:09 | 47.71831 | 0.63224 | 36941 ft | 418 kts | 174° |
| 2026-05-04 13:10 | 47.66076 | 0.64452 | 36939 ft | 418 kts | 174° |
| 2026-05-04 13:10 | 47.60325 | 0.65683 | 36942 ft | 417 kts | 174° |
| 2026-05-04 13:11 | 47.54579 | 0.66905 | 36946 ft | 417 kts | 174° |
| 2026-05-04 13:11 | 47.48831 | 0.68122 | 36952 ft | 417 kts | 174° |
| 2026-05-04 13:12 | 47.43088 | 0.69347 | 36950 ft | 417 kts | 174° |
| 2026-05-04 13:12 | 47.37351 | 0.70568 | 36952 ft | 416 kts | 174° |
| 2026-05-04 13:13 | 47.31619 | 0.71776 | 36947 ft | 416 kts | 174° |
| 2026-05-04 13:13 | 47.25886 | 0.72976 | 36941 ft | 416 kts | 174° |
| 2026-05-04 13:14 | 47.20156 | 0.74178 | 36939 ft | 416 kts | 174° |
| 2026-05-04 13:14 | 47.14427 | 0.75375 | 36935 ft | 416 kts | 174° |
| 2026-05-04 13:15 | 47.08701 | 0.76572 | 36932 ft | 416 kts | 174° |
| 2026-05-04 13:15 | 47.02977 | 0.77781 | 36932 ft | 415 kts | 174° |
| 2026-05-04 13:16 | 46.97262 | 0.78982 | 36933 ft | 415 kts | 174° |
| 2026-05-04 13:16 | 46.91543 | 0.80174 | 36938 ft | 415 kts | 174° |
| 2026-05-04 13:17 | 46.85835 | 0.81356 | 36941 ft | 414 kts | 174° |
| 2026-05-04 13:17 | 46.80131 | 0.82535 | 36941 ft | 414 kts | 174° |
| 2026-05-04 13:18 | 46.74431 | 0.83710 | 36944 ft | 413 kts | 174° |
| 2026-05-04 13:18 | 46.68735 | 0.84883 | 36941 ft | 413 kts | 174° |
| 2026-05-04 13:19 | 46.63042 | 0.86056 | 36938 ft | 413 kts | 174° |
| 2026-05-04 13:19 | 46.57392 | 0.87213 | 36933 ft | 413 kts | 175° |
| 2026-05-04 13:20 | 46.51709 | 0.88374 | 36932 ft | 412 kts | 175° |
| 2026-05-04 13:20 | 46.46028 | 0.89535 | 36930 ft | 412 kts | 175° |
| 2026-05-04 13:21 | 46.40349 | 0.90706 | 36932 ft | 412 kts | 175° |
| 2026-05-04 13:21 | 46.34674 | 0.91867 | 36932 ft | 412 kts | 175° |